Time;durP1;ratioP1;P1;durP2;ratioP2;P2;SDS_P1;SDS_P2;PMS_P1;PMS_P2;Temp;Humidity;BMP_temperature;BMP_pressure;BME280_temperature;BME280_humidity;BME280_pressure;Samples;Min_cycle;Max_cycle;Signal;HPM_P1;HPM_P2
2023/02/14 00:02:07;;;;;;;0.75;0.75;;;1.80;99.90;;;;;;5048815;28;20087;-81
2023/02/14 00:04:33;;;;;;;;;;;1.80;99.90;;;;;;5046233;28;20091;-81
2023/02/14 00:07:00;;;;;;;0.70;0.70;;;1.80;99.90;;;;;;5043138;28;19921;-81
2023/02/14 00:09:26;;;;;;;1.13;1.13;;;1.80;99.90;;;;;;5048301;28;20516;-81
2023/02/14 00:11:51;;;;;;;0.90;0.90;;;1.80;99.90;;;;;;5043676;28;20044;-82
2023/02/14 00:17:02;;;;;;;0.60;0.60;;;1.80;99.90;;;;;;5055176;28;20381;-80
2023/02/14 00:19:28;;;;;;;;;;;1.80;99.90;;;;;;5020357;28;20071;-81
2023/02/14 00:21:54;;;;;;;0.60;0.60;;;1.70;99.90;;;;;;5048963;28;19917;-80
2023/02/14 00:24:24;;;;;;;0.70;0.70;;;2.00;99.90;;;;;;5049677;28;20061;-80
2023/02/14 00:26:51;;;;;;;0.80;0.80;;;1.70;99.90;;;;;;5048684;28;20059;-82
2023/02/14 00:29:30;;;;;;;0.63;0.63;;;1.60;99.90;;;;;;5046764;28;20621;-81
2023/02/14 00:31:56;;;;;;;0.70;0.70;;;1.50;99.90;;;;;;5030833;28;20063;-81
2023/02/14 00:34:22;;;;;;;0.70;0.70;;;1.50;99.90;;;;;;5050388;28;20048;-81
2023/02/14 00:36:49;;;;;;;0.70;0.70;;;1.50;99.90;;;;;;5045148;28;20037;-81
2023/02/14 00:39:16;;;;;;;0.70;0.70;;;1.40;99.90;;;;;;5052172;28;20479;-80
2023/02/14 00:41:42;;;;;;;0.80;0.80;;;1.40;99.90;;;;;;5033344;28;20129;-81
2023/02/14 00:44:09;;;;;;;0.80;0.80;;;1.30;99.90;;;;;;5032349;28;20049;-81
2023/02/14 00:46:35;;;;;;;0.60;0.60;;;1.30;99.90;;;;;;5041938;28;20098;-81
2023/02/14 00:49:01;;;;;;;;;;;1.20;99.90;;;;;;5031578;28;20399;-81
2023/02/14 00:51:27;;;;;;;0.65;0.65;;;1.20;99.90;;;;;;5001564;28;19925;-81
2023/02/14 00:53:52;;;;;;;;;;;1.20;99.90;;;;;;5049803;28;20048;-81
2023/02/14 00:56:19;;;;;;;0.77;0.77;;;1.20;99.90;;;;;;5052469;28;19932;-80
2023/02/14 00:58:45;;;;;;;0.70;0.70;;;1.20;99.90;;;;;;5047054;28;20044;-80
2023/02/14 01:01:15;;;;;;;0.77;0.77;;;1.10;99.90;;;;;;5038108;28;20068;-80
2023/02/14 01:03:41;;;;;;;0.60;0.60;;;1.20;99.90;;;;;;5038143;28;20049;-81
2023/02/14 01:06:07;;;;;;;0.60;0.60;;;1.10;99.90;;;;;;5017094;28;20206;-80
2023/02/14 01:08:34;;;;;;;0.50;0.50;;;1.10;99.90;;;;;;5049836;28;20179;-81
2023/02/14 01:11:07;;;;;;;0.55;0.55;;;1.00;99.90;;;;;;5031548;28;20061;-81
2023/02/14 01:13:33;;;;;;;0.75;0.75;;;1.10;99.90;;;;;;5029242;28;20103;-81
2023/02/14 01:16:05;;;;;;;0.70;0.70;;;1.10;99.90;;;;;;5048573;28;20827;-82
2023/02/14 01:18:31;;;;;;;0.63;0.63;;;0.80;99.90;;;;;;5032316;28;20482;-82
2023/02/14 01:21:07;;;;;;;0.70;0.70;;;1.00;99.90;;;;;;5033004;28;20114;-82
2023/02/14 01:23:33;;;;;;;0.73;0.73;;;1.00;99.90;;;;;;5040322;28;20088;-82
2023/02/14 01:26:08;;;;;;;0.57;0.57;;;1.00;99.90;;;;;;5032940;28;20145;-81
2023/02/14 01:28:34;;;;;;;0.70;0.70;;;1.00;99.90;;;;;;5039064;28;20128;-80
2023/02/14 01:31:18;;;;;;;0.75;0.75;;;1.10;99.90;;;;;;5016493;28;20053;-81
2023/02/14 01:33:45;;;;;;;0.70;0.70;;;1.20;99.90;;;;;;5037365;28;20116;-80
2023/02/14 01:36:23;;;;;;;0.70;0.70;;;0.90;99.90;;;;;;5041091;28;20502;-81
2023/02/14 01:38:54;;;;;;;0.60;0.60;;;0.80;99.90;;;;;;5048024;28;20041;-81
2023/02/14 01:41:21;;;;;;;0.70;0.70;;;0.80;99.90;;;;;;5049431;28;20056;-81
2023/02/14 01:43:53;;;;;;;0.70;0.70;;;0.70;99.90;;;;;;5027399;28;20498;-81
2023/02/14 01:46:19;;;;;;;0.60;0.60;;;0.80;99.90;;;;;;5034105;28;20048;-80
2023/02/14 01:48:46;;;;;;;0.73;0.73;;;1.00;99.90;;;;;;5045647;28;20037;-80
2023/02/14 01:51:19;;;;;;;0.60;0.60;;;0.70;99.90;;;;;;5052620;28;20155;-80
2023/02/14 01:53:47;;;;;;;0.77;0.77;;;0.70;99.90;;;;;;5049547;28;20044;-80
2023/02/14 01:56:17;;;;;;;0.70;0.70;;;0.70;99.90;;;;;;5047778;28;20094;-80
2023/02/14 01:58:47;;;;;;;0.50;0.50;;;0.80;99.90;;;;;;5038002;28;20417;-80
2023/02/14 02:01:15;;;;;;;0.90;0.90;;;0.70;99.90;;;;;;5046252;28;20068;-80
2023/02/14 02:03:50;;;;;;;0.55;0.55;;;0.60;99.90;;;;;;5049760;28;20127;-80
2023/02/14 02:06:25;;;;;;;0.70;0.70;;;0.60;99.90;;;;;;5048139;28;20060;-81
2023/02/14 02:09:11;;;;;;;0.70;0.70;;;0.60;99.90;;;;;;5048880;28;20071;-80
2023/02/14 02:11:37;;;;;;;0.70;0.70;;;0.60;99.90;;;;;;5046411;28;20041;-81
2023/02/14 02:14:04;;;;;;;;;;;0.80;99.90;;;;;;5031594;28;20077;-80
2023/02/14 02:16:50;;;;;;;0.70;0.70;;;1.00;99.90;;;;;;5047837;28;20455;-81
2023/02/14 02:19:37;;;;;;;0.80;0.80;;;0.50;99.90;;;;;;5048375;28;20049;-81
2023/02/14 02:22:27;;;;;;;0.65;0.65;;;0.50;99.90;;;;;;5048564;28;20049;-80
2023/02/14 02:25:18;;;;;;;0.68;0.68;;;0.50;99.90;;;;;;5032242;28;20045;-81
2023/02/14 02:27:49;;;;;;;0.60;0.60;;;0.50;99.90;;;;;;5046679;28;21475;-81
2023/02/14 02:30:47;;;;;;;0.70;0.70;;;0.40;99.90;;;;;;5058196;28;20379;-81
2023/02/14 02:33:14;;;;;;;;;;;0.40;99.90;;;;;;5029320;28;20121;-81
2023/02/14 02:35:51;;;;;;;0.70;0.70;;;0.50;99.90;;;;;;5037371;28;19923;-81
2023/02/14 02:38:46;;;;;;;0.80;0.80;;;0.40;99.90;;;;;;5047467;28;20045;-80
2023/02/14 02:41:37;;;;;;;0.57;0.57;;;0.40;99.90;;;;;;5045681;28;20045;-81
2023/02/14 02:44:17;;;;;;;0.60;0.60;;;0.30;99.90;;;;;;5045360;28;20513;-81
2023/02/14 02:46:52;;;;;;;0.70;0.70;;;0.30;99.90;;;;;;5048095;28;20049;-81
2023/02/14 02:53:02;;;;;;;0.60;0.60;;;0.30;99.90;;;;;;5025067;28;20088;-81
2023/02/14 02:59:17;;;;;;;0.65;0.65;;;0.20;99.90;;;;;;5038508;28;20129;-81
2023/02/14 03:01:51;;;;;;;0.60;0.60;;;0.10;99.90;;;;;;5040237;28;20084;-81
2023/02/14 03:07:33;;;;;;;0.70;0.70;;;0.00;99.90;;;;;;5052181;28;20110;-81
2023/02/14 03:09:56;;;;;;;0.70;0.70;;;-0.10;99.90;;;;;;5050701;28;20118;-81
2023/02/14 03:12:34;;;;;;;0.63;0.63;;;-0.20;99.90;;;;;;5033529;28;20114;-81
2023/02/14 03:15:21;;;;;;;0.77;0.77;;;-0.20;99.90;;;;;;5050722;28;20052;-81
2023/02/14 03:18:12;;;;;;;0.60;0.60;;;-0.30;99.90;;;;;;5048871;28;20863;-80
2023/02/14 03:20:56;;;;;;;0.60;0.60;;;-0.30;99.90;;;;;;5050693;28;20428;-80
2023/02/14 03:23:52;;;;;;;0.60;0.60;;;-0.30;99.90;;;;;;5034281;28;20037;-80
2023/02/14 03:26:47;;;;;;;0.80;0.80;;;-0.30;99.90;;;;;;5048831;28;20057;-81
2023/02/14 03:29:28;;;;;;;0.60;0.60;;;-0.30;99.90;;;;;;5038385;28;20056;-81
2023/02/14 03:32:00;;;;;;;0.60;0.60;;;-0.30;99.90;;;;;;5050907;28;20071;-81
2023/02/14 03:34:55;;;;;;;0.80;0.80;;;-0.30;99.90;;;;;;5051171;28;20394;-82
2023/02/14 03:37:35;;;;;;;0.68;0.68;;;-0.30;99.90;;;;;;5050706;28;20348;-81
2023/02/14 03:40:18;;;;;;;0.70;0.70;;;-0.30;99.90;;;;;;5034912;28;20057;-81
2023/02/14 03:43:17;;;;;;;0.70;0.70;;;-0.30;99.90;;;;;;5050071;28;20045;-80
2023/02/14 03:45:53;;;;;;;0.75;0.75;;;-0.30;99.90;;;;;;5053306;28;20055;-81
2023/02/14 03:48:22;;;;;;;0.80;0.80;;;-0.30;99.90;;;;;;5049537;28;20057;-81
2023/02/14 03:50:50;;;;;;;0.63;0.63;;;-0.30;99.90;;;;;;5063225;28;20055;-81
2023/02/14 03:53:21;;;;;;;0.70;0.70;;;0.00;99.90;;;;;;5035173;28;20044;-82
2023/02/14 03:56:07;;;;;;;0.63;0.63;;;-0.20;99.90;;;;;;5034902;28;20437;-82
2023/02/14 03:58:43;;;;;;;0.60;0.60;;;-0.20;99.90;;;;;;5020960;28;20454;-82
2023/02/14 04:01:50;;;;;;;0.50;0.50;;;-0.20;99.90;;;;;;5041855;28;20084;-82
2023/02/14 04:04:21;;;;;;;0.80;0.80;;;-0.20;99.90;;;;;;5028732;28;20110;-81
2023/02/14 04:06:47;;;;;;;0.70;0.70;;;0.10;99.90;;;;;;5052648;28;20052;-82
2023/02/14 04:09:14;;;;;;;0.77;0.77;;;-0.20;99.90;;;;;;5051627;28;20049;-81
2023/02/14 04:11:40;;;;;;;0.70;0.70;;;-0.20;99.90;;;;;;5051329;28;20125;-82
2023/02/14 04:14:06;;;;;;;0.82;0.82;;;-0.10;99.90;;;;;;5034791;28;20198;-82
2023/02/14 04:19:21;;;;;;;0.60;0.60;;;-0.10;99.90;;;;;;5050174;28;20580;-82
2023/02/14 04:19:24;;;;;;;0.80;0.80;;;-0.10;99.90;;;;;;5049173;28;20449;-81
2023/02/14 04:21:51;;;;;;;0.63;0.63;;;-0.10;99.90;;;;;;5034074;28;20105;-81
2023/02/14 04:24:17;;;;;;;0.63;0.63;;;-0.10;99.90;;;;;;5050971;28;20437;-81
2023/02/14 04:26:52;;;;;;;0.70;0.70;;;-0.10;99.90;;;;;;5033235;28;20051;-81
2023/02/14 04:29:21;;;;;;;1.05;0.95;;;0.30;99.90;;;;;;5049711;28;20499;-80
2023/02/14 04:31:48;;;;;;;0.70;0.70;;;0.00;99.90;;;;;;5048949;28;20126;-81
2023/02/14 04:34:13;;;;;;;;;;;-0.10;99.90;;;;;;5032526;28;20049;-82
2023/02/14 04:36:39;;;;;;;0.65;0.65;;;0.00;99.90;;;;;;5048850;28;19921;-81
2023/02/14 04:39:06;;;;;;;1.63;0.93;;;0.00;99.90;;;;;;5032692;28;20055;-79
2023/02/14 04:41:33;;;;;;;0.70;0.70;;;0.10;99.90;;;;;;5051402;28;20084;-81
2023/02/14 04:43:59;;;;;;;0.70;0.70;;;0.10;99.90;;;;;;5048965;28;20048;-81
2023/02/14 04:46:24;;;;;;;0.70;0.70;;;0.00;99.90;;;;;;5031356;28;20049;-81
2023/02/14 04:48:50;;;;;;;0.70;0.70;;;0.10;99.90;;;;;;5049603;28;20043;-81
2023/02/14 04:51:16;;;;;;;0.70;0.70;;;0.10;99.90;;;;;;5064549;28;20044;-80
2023/02/14 04:53:42;;;;;;;0.65;0.65;;;0.10;99.90;;;;;;5050458;28;20548;-80
2023/02/14 04:56:08;;;;;;;0.70;0.70;;;0.00;99.90;;;;;;5051035;28;20494;-81
2023/02/14 04:58:34;;;;;;;0.80;0.80;;;0.20;99.90;;;;;;5067975;28;20046;-81
2023/02/14 05:01:00;;;;;;;;;;;-0.10;99.90;;;;;;5042036;28;20053;-81
2023/02/14 05:03:26;;;;;;;0.60;0.60;;;-0.10;99.90;;;;;;5046547;28;20400;-81
2023/02/14 05:05:52;;;;;;;0.70;0.70;;;-0.20;99.90;;;;;;5029921;28;20060;-81
2023/02/14 05:08:18;;;;;;;0.80;0.80;;;-0.20;99.90;;;;;;5037296;28;20041;-80
2023/02/14 05:10:44;;;;;;;0.70;0.70;;;-0.20;99.90;;;;;;5031484;28;20099;-80
2023/02/14 05:13:14;;;;;;;0.60;0.60;;;-0.30;99.90;;;;;;5050464;28;20555;-81
2023/02/14 05:15:39;;;;;;;0.80;0.80;;;-0.30;99.90;;;;;;5047732;28;20132;-81
2023/02/14 05:18:05;;;;;;;0.73;0.73;;;-0.30;99.90;;;;;;5050024;28;20084;-82
2023/02/14 05:20:31;;;;;;;0.80;0.80;;;-0.40;99.90;;;;;;5046605;28;20044;-80
2023/02/14 05:23:02;;;;;;;0.80;0.80;;;-0.50;99.90;;;;;;5049678;28;20540;-81
2023/02/14 05:25:29;;;;;;;0.70;0.70;;;-0.50;99.90;;;;;;5033582;28;20131;-80
2023/02/14 05:27:56;;;;;;;0.77;0.77;;;-0.50;99.90;;;;;;5049501;28;20086;-81
2023/02/14 05:30:25;;;;;;;;;;;-0.60;99.90;;;;;;5011405;28;20063;-81
2023/02/14 05:32:51;;;;;;;1.73;1.60;;;-0.60;99.90;;;;;;5045528;28;19928;-81
2023/02/14 05:35:17;;;;;;;0.70;0.70;;;-0.60;99.90;;;;;;5032017;28;20069;-81
2023/02/14 05:37:45;;;;;;;0.77;0.77;;;-0.60;99.90;;;;;;5032153;28;20073;-81
2023/02/14 05:40:12;;;;;;;0.73;0.73;;;-0.60;99.90;;;;;;5051221;28;20037;-80
2023/02/14 05:42:39;;;;;;;0.80;0.80;;;-0.60;99.90;;;;;;5050610;28;20502;-80
2023/02/14 05:45:05;;;;;;;0.70;0.70;;;-0.50;99.90;;;;;;5027921;28;20044;-81
2023/02/14 05:47:31;;;;;;;0.80;0.80;;;-0.70;99.90;;;;;;5029077;28;20849;-79
2023/02/14 05:49:57;;;;;;;;;;;-0.70;99.90;;;;;;5038017;28;20490;-81
2023/02/14 05:52:22;;;;;;;0.70;0.70;;;-0.80;99.90;;;;;;5049085;28;19928;-81
2023/02/14 05:54:48;;;;;;;0.90;0.90;;;-0.80;99.90;;;;;;5044348;28;20045;-81
2023/02/14 05:57:14;;;;;;;0.90;0.90;;;-0.80;99.90;;;;;;5059152;28;20048;-82
2023/02/14 05:59:39;;;;;;;;;;;-0.80;99.90;;;;;;5032353;28;20044;-81
2023/02/14 06:02:05;;;;;;;0.70;0.70;;;-1.00;99.90;;;;;;5048214;28;20011;-81
2023/02/14 06:04:32;;;;;;;1.48;1.48;;;-0.90;99.90;;;;;;5047844;28;20057;-80
2023/02/14 06:06:58;;;;;;;0.80;0.80;;;-0.90;99.90;;;;;;5048453;28;20110;-80
2023/02/14 06:09:23;;;;;;;0.80;0.80;;;-0.90;99.90;;;;;;5015946;28;20128;-80
2023/02/14 06:11:50;;;;;;;0.70;0.70;;;-0.90;99.90;;;;;;5046948;28;20480;-81
2023/02/14 06:14:16;;;;;;;0.60;0.60;;;-0.90;99.90;;;;;;5048716;28;20536;-81
2023/02/14 06:16:48;;;;;;;0.80;0.80;;;-0.80;99.90;;;;;;5046171;28;20142;-81
2023/02/14 06:19:14;;;;;;;0.80;0.80;;;-0.80;99.90;;;;;;5047815;28;20500;-81
2023/02/14 06:21:39;;;;;;;0.80;0.80;;;-0.70;99.90;;;;;;5047859;28;20041;-81
2023/02/14 06:24:06;;;;;;;0.80;0.80;;;-0.70;99.90;;;;;;5027211;28;20041;-80
2023/02/14 06:26:34;;;;;;;0.65;0.65;;;-0.40;99.90;;;;;;5029391;28;20128;-81
2023/02/14 06:29:02;;;;;;;0.82;0.82;;;-0.40;99.90;;;;;;5039573;28;20122;-80
2023/02/14 06:31:29;;;;;;;0.80;0.80;;;-0.30;99.90;;;;;;5045345;28;20045;-81
2023/02/14 06:33:55;;;;;;;0.80;0.80;;;-0.20;99.90;;;;;;5046428;28;20056;-81
2023/02/14 06:36:21;;;;;;;0.80;0.80;;;-0.10;99.90;;;;;;5048778;28;20033;-81
2023/02/14 06:38:47;;;;;;;1.10;1.10;;;0.00;99.90;;;;;;5049159;28;20056;-80
2023/02/14 06:41:15;;;;;;;1.05;1.05;;;0.10;99.90;;;;;;5048196;28;20390;-81
2023/02/14 06:43:43;;;;;;;0.70;0.70;;;0.20;99.90;;;;;;5021627;28;20077;-82
2023/02/14 06:46:09;;;;;;;0.70;0.70;;;0.30;99.90;;;;;;5051661;28;20524;-80
2023/02/14 06:48:35;;;;;;;0.47;0.47;;;0.30;99.90;;;;;;5049620;28;20517;-81
2023/02/14 06:51:01;;;;;;;0.68;0.68;;;0.40;99.90;;;;;;5059177;28;20045;-80
2023/02/14 06:53:27;;;;;;;;;;;0.40;99.90;;;;;;5052500;28;20048;-80
2023/02/14 06:55:53;;;;;;;0.73;0.73;;;0.40;99.90;;;;;;5049230;28;19991;-81
2023/02/14 06:58:19;;;;;;;0.70;0.70;;;0.70;99.90;;;;;;5022671;28;20118;-80
2023/02/14 07:00:45;;;;;;;0.60;0.60;;;0.50;99.90;;;;;;5032268;28;20072;-79
2023/02/14 07:03:11;;;;;;;0.70;0.70;;;1.20;99.90;;;;;;5032892;28;20045;-80
2023/02/14 07:05:37;;;;;;;0.70;0.70;;;0.50;99.90;;;;;;5015094;28;20053;-81
2023/02/14 07:08:02;;;;;;;2.50;2.35;;;0.50;99.90;;;;;;5032206;28;20090;-80
2023/02/14 07:10:28;;;;;;;0.70;0.70;;;0.40;99.90;;;;;;5045961;28;20409;-80
2023/02/14 07:12:54;;;;;;;0.70;0.70;;;0.50;99.90;;;;;;5032157;28;21869;-81
2023/02/14 07:15:20;;;;;;;0.80;0.80;;;0.70;99.90;;;;;;5051535;28;20040;-81
2023/02/14 07:17:45;;;;;;;0.70;0.70;;;0.40;99.90;;;;;;5051624;28;20037;-79
2023/02/14 07:20:12;;;;;;;0.75;0.75;;;0.50;99.90;;;;;;5052902;28;20112;-80
2023/02/14 07:22:38;;;;;;;0.80;0.80;;;0.40;99.90;;;;;;5049534;28;20059;-80
2023/02/14 07:25:05;;;;;;;;;;;0.40;99.90;;;;;;5032121;28;20064;-80
2023/02/14 07:27:31;;;;;;;0.70;0.70;;;0.50;99.90;;;;;;5046542;28;20039;-81
2023/02/14 07:29:57;;;;;;;0.80;0.80;;;0.50;99.90;;;;;;5048582;28;20545;-79
2023/02/14 07:32:23;;;;;;;0.80;0.80;;;0.50;99.90;;;;;;5030881;28;20161;-81
2023/02/14 07:34:49;;;;;;;;;;;0.50;99.90;;;;;;5050125;28;20051;-79
2023/02/14 07:37:16;;;;;;;0.60;0.60;;;0.50;99.90;;;;;;5051364;28;20262;-79
2023/02/14 07:39:44;;;;;;;0.68;0.68;;;0.60;99.90;;;;;;5035632;28;20391;-80
2023/02/14 07:42:11;;;;;;;0.70;0.70;;;0.60;99.90;;;;;;5053285;28;20091;-80
2023/02/14 07:44:41;;;;;;;0.70;0.70;;;0.60;99.90;;;;;;5050018;28;20045;-81
2023/02/14 07:47:08;;;;;;;0.70;0.70;;;0.60;99.90;;;;;;5032574;28;20053;-82
2023/02/14 07:49:34;;;;;;;0.50;0.50;;;0.60;99.90;;;;;;5051848;28;20376;-83
2023/02/14 07:52:01;;;;;;;0.70;0.70;;;0.70;99.90;;;;;;5035607;28;20055;-80
2023/02/14 07:54:26;;;;;;;0.60;0.60;;;0.70;99.90;;;;;;5049616;28;20072;-84
2023/02/14 07:56:52;;;;;;;0.70;0.70;;;0.70;99.90;;;;;;5033759;28;20068;-83
2023/02/14 07:59:18;;;;;;;0.70;0.70;;;0.80;99.90;;;;;;5052273;28;20045;-81
2023/02/14 08:01:44;;;;;;;0.75;0.75;;;0.80;99.90;;;;;;5019896;28;20076;-81
2023/02/14 08:04:12;;;;;;;0.68;0.68;;;0.80;99.90;;;;;;5050084;28;20048;-81
2023/02/14 08:06:50;;;;;;;0.65;0.65;;;0.90;99.90;;;;;;5034880;28;20087;-81
2023/02/14 08:09:23;;;;;;;0.80;0.80;;;0.90;99.90;;;;;;5034871;28;20448;-82
2023/02/14 08:14:42;;;;;;;0.80;0.80;;;0.90;99.90;;;;;;5047925;28;20120;-81
2023/02/14 08:17:08;;;;;;;0.60;0.60;;;0.90;99.90;;;;;;5050280;28;20051;-81
2023/02/14 08:19:36;;;;;;;0.60;0.60;;;1.00;99.90;;;;;;5050936;28;20132;-79
2023/02/14 08:22:03;;;;;;;0.47;0.47;;;1.00;99.90;;;;;;5050479;28;20056;-83
2023/02/14 08:24:29;;;;;;;0.50;0.50;;;1.00;99.90;;;;;;5034873;28;20048;-82
2023/02/14 08:26:54;;;;;;;0.70;0.70;;;1.10;99.90;;;;;;5048954;28;20413;-81
2023/02/14 08:29:20;;;;;;;0.60;0.60;;;1.30;99.90;;;;;;5032785;28;20052;-80
2023/02/14 08:31:47;;;;;;;0.70;0.70;;;1.10;99.90;;;;;;5033127;28;20029;-80
2023/02/14 08:34:14;;;;;;;0.60;0.60;;;1.20;99.90;;;;;;5046494;28;20402;-79
2023/02/14 08:36:41;;;;;;;0.60;0.60;;;1.30;99.90;;;;;;5050695;28;20128;-81
2023/02/14 08:39:06;;;;;;;0.50;0.50;;;1.30;99.90;;;;;;5022557;28;20037;-79
2023/02/14 08:41:32;;;;;;;0.70;0.70;;;1.40;99.90;;;;;;5040027;28;20045;-84
2023/02/14 08:43:58;;;;;;;0.50;0.50;;;1.40;99.90;;;;;;5047069;28;20517;-82
2023/02/14 08:46:24;;;;;;;0.77;0.77;;;1.40;99.90;;;;;;5047845;28;20073;-84
2023/02/14 08:48:50;;;;;;;0.60;0.60;;;1.90;99.90;;;;;;5033972;28;20436;-82
2023/02/14 08:51:16;;;;;;;0.73;0.73;;;1.50;99.90;;;;;;5030943;28;20563;-82
2023/02/14 08:53:45;;;;;;;0.50;0.50;;;2.20;99.90;;;;;;5048662;28;20043;-83
2023/02/14 08:56:13;;;;;;;0.60;0.60;;;1.60;99.90;;;;;;5051242;28;20088;-83
2023/02/14 08:58:39;;;;;;;0.60;0.60;;;1.70;99.90;;;;;;5050475;28;20099;-83
2023/02/14 09:01:14;;;;;;;0.80;0.80;;;1.70;99.90;;;;;;5032740;28;20072;-82
2023/02/14 09:03:40;;;;;;;0.50;0.50;;;1.80;99.90;;;;;;5056483;28;20070;-81
2023/02/14 09:06:08;;;;;;;0.60;0.60;;;1.90;99.90;;;;;;5052091;28;20048;-80
2023/02/14 09:08:37;;;;;;;0.55;0.55;;;2.00;99.90;;;;;;5014441;28;20049;-82
2023/02/14 09:11:13;;;;;;;0.55;0.55;;;2.00;99.90;;;;;;5049501;28;20132;-79
2023/02/14 09:13:40;;;;;;;0.68;0.68;;;2.00;99.90;;;;;;5033094;28;20041;-81
2023/02/14 09:16:08;;;;;;;0.65;0.65;;;2.00;99.90;;;;;;5017466;28;20047;-82
2023/02/14 09:18:36;;;;;;;0.60;0.60;;;2.50;99.90;;;;;;5051680;28;20048;-82
2023/02/14 09:21:06;;;;;;;0.80;0.80;;;2.10;99.90;;;;;;5051220;28;20060;-82
2023/02/14 09:23:32;;;;;;;0.50;0.50;;;2.20;99.90;;;;;;5050626;28;20175;-81
2023/02/14 09:26:03;;;;;;;0.50;0.50;;;2.20;99.90;;;;;;5049655;28;20136;-82
2023/02/14 09:28:29;;;;;;;4.88;0.90;;;2.30;99.90;;;;;;5045310;28;20134;-82
2023/02/14 09:30:56;;;;;;;1.25;1.25;;;2.10;99.90;;;;;;5046666;28;20037;-80
2023/02/14 09:33:25;;;;;;;0.60;0.60;;;2.40;99.90;;;;;;5034494;28;20044;-81
2023/02/14 09:38:35;;;;;;;0.47;0.47;;;2.60;99.90;;;;;;5035317;28;20049;-82
2023/02/14 09:41:08;;;;;;;0.55;0.55;;;2.60;99.90;;;;;;5047377;28;20054;-83
2023/02/14 09:43:59;;;;;;;0.60;0.60;;;2.80;99.90;;;;;;5032196;28;20151;-80
2023/02/14 09:46:27;;;;;;;0.50;0.50;;;2.90;99.90;;;;;;5022425;28;20115;-79
2023/02/14 09:48:54;;;;;;;0.52;0.52;;;2.90;99.90;;;;;;5050116;28;20094;-83
2023/02/14 09:51:24;;;;;;;0.55;0.55;;;3.00;99.90;;;;;;5056239;28;20486;-84
2023/02/14 09:54:19;;;;;;;0.50;0.50;;;3.20;99.90;;;;;;5048197;28;20044;-82
2023/02/14 09:57:10;;;;;;;0.60;0.60;;;3.20;99.90;;;;;;5044725;28;20049;-82
2023/02/14 09:59:48;;;;;;;0.60;0.60;;;3.30;99.90;;;;;;5052150;28;20045;-81
2023/02/14 10:02:35;;;;;;;0.63;0.63;;;3.40;99.90;;;;;;5051125;28;20080;-82
2023/02/14 10:05:08;;;;;;;;;;;3.50;99.90;;;;;;5045157;28;20036;-81
2023/02/14 10:08:12;;;;;;;0.47;0.47;;;3.60;99.90;;;;;;5043870;28;19921;-83
2023/02/14 10:10:44;;;;;;;0.50;0.50;;;3.70;99.90;;;;;;5045010;28;20068;-83
2023/02/14 10:13:33;;;;;;;0.60;0.60;;;3.90;99.90;;;;;;5043165;28;20136;-82
2023/02/14 10:16:07;;;;;;;0.70;0.70;;;3.90;99.90;;;;;;5048749;28;20052;-81
2023/02/14 10:18:47;;;;;;;0.63;0.63;;;4.00;99.90;;;;;;5049724;28;20556;-79
2023/02/14 10:21:41;;;;;;;0.95;0.95;;;4.10;99.90;;;;;;5049444;28;20053;-83
2023/02/14 10:24:22;;;;;;;0.50;0.50;;;4.10;99.90;;;;;;5042000;28;20057;-83
2023/02/14 10:26:49;;;;;;;0.50;0.50;;;4.20;99.90;;;;;;5049343;28;20041;-80
2023/02/14 10:29:19;;;;;;;0.60;0.60;;;4.30;99.90;;;;;;5048967;28;20453;-82
2023/02/14 10:32:03;;;;;;;0.52;0.52;;;4.40;99.90;;;;;;5049474;28;20102;-81
2023/02/14 10:34:47;;;;;;;0.50;0.50;;;4.50;99.90;;;;;;5031628;28;20037;-81
2023/02/14 10:37:28;;;;;;;0.70;0.70;;;4.60;99.90;;;;;;5044309;28;20049;-82
2023/02/14 10:40:13;;;;;;;0.60;0.60;;;4.70;99.90;;;;;;5046446;28;20044;-81
2023/02/14 10:43:11;;;;;;;0.60;0.60;;;4.80;99.90;;;;;;5030089;28;20107;-80
2023/02/14 10:46:12;;;;;;;0.50;0.50;;;5.00;99.90;;;;;;5026258;28;20053;-82
2023/02/14 10:48:43;;;;;;;1.55;0.90;;;5.10;99.90;;;;;;5032010;28;20053;-82
2023/02/14 10:51:29;;;;;;;0.70;0.70;;;5.20;99.90;;;;;;5044010;28;20091;-82
2023/02/14 10:54:01;;;;;;;0.70;0.70;;;5.40;99.90;;;;;;5047559;28;20044;-80
2023/02/14 10:56:41;;;;;;;0.88;0.88;;;5.40;99.90;;;;;;5031426;28;20045;-80
2023/02/14 10:59:18;;;;;;;0.80;0.80;;;5.50;99.90;;;;;;5042791;28;20049;-81
2023/02/14 11:01:44;;;;;;;0.73;0.73;;;5.70;99.90;;;;;;5047290;28;20041;-83
2023/02/14 11:04:12;;;;;;;0.60;0.60;;;5.80;99.90;;;;;;5032417;28;20394;-80
2023/02/14 11:06:38;;;;;;;0.68;0.68;;;5.90;99.90;;;;;;5048474;28;20061;-80
2023/02/14 11:09:04;;;;;;;2.47;2.28;;;6.00;99.90;;;;;;5042429;28;20508;-82
2023/02/14 11:11:39;;;;;;;0.98;0.90;;;6.10;99.90;;;;;;5046154;28;20076;-81
2023/02/14 11:14:36;;;;;;;1.58;1.50;;;6.10;99.90;;;;;;5053457;28;20063;-80
2023/02/14 11:17:20;;;;;;;0.50;0.50;;;6.30;99.90;;;;;;5049727;28;20454;-84
2023/02/14 11:19:58;;;;;;;0.85;0.85;;;6.30;99.90;;;;;;5048787;28;20059;-80
2023/02/14 11:22:31;;;;;;;0.60;0.60;;;6.50;99.90;;;;;;5029592;28;20056;-81
2023/02/14 11:25:19;;;;;;;0.68;0.68;;;6.50;99.90;;;;;;5059664;28;20363;-80
2023/02/14 11:27:49;;;;;;;0.65;0.65;;;6.70;99.90;;;;;;5050745;28;20534;-82
2023/02/14 11:30:29;;;;;;;0.73;0.73;;;6.80;99.90;;;;;;5034777;28;20045;-83
2023/02/14 11:32:55;;;;;;;0.60;0.60;;;6.90;99.90;;;;;;5015398;28;20048;-84
2023/02/14 11:35:32;;;;;;;0.75;0.75;;;6.90;99.90;;;;;;5048827;28;20170;-81
2023/02/14 11:37:59;;;;;;;0.57;0.57;;;7.00;99.90;;;;;;5039741;28;20394;-81
2023/02/14 11:40:52;;;;;;;0.82;0.80;;;7.10;99.90;;;;;;5050255;28;20207;-83
2023/02/14 11:43:33;;;;;;;0.60;0.60;;;7.20;99.90;;;;;;5046874;28;20448;-82
2023/02/14 11:46:25;;;;;;;0.82;0.82;;;7.40;99.90;;;;;;5046003;28;20033;-80
2023/02/14 11:49:00;;;;;;;0.77;0.77;;;7.40;99.90;;;;;;5034825;28;20040;-80
2023/02/14 11:51:35;;;;;;;0.40;0.40;;;7.50;99.90;;;;;;5053203;28;20068;-82
2023/02/14 11:54:05;;;;;;;0.85;0.85;;;7.60;99.90;;;;;;5050683;28;20091;-79
2023/02/14 11:57:08;;;;;;;1.08;1.02;;;7.70;99.90;;;;;;5053288;28;20075;-82
2023/02/14 11:59:47;;;;;;;8.68;2.95;;;7.70;99.90;;;;;;5020722;28;20119;-80
2023/02/14 12:02:31;;;;;;;4.90;3.97;;;7.90;99.90;;;;;;5033835;28;20048;-80
2023/02/14 12:05:16;;;;;;;1.15;1.08;;;8.00;99.90;;;;;;5046362;28;20044;-81
2023/02/14 12:07:44;;;;;;;0.73;0.73;;;8.10;99.90;;;;;;5052335;28;20079;-80
2023/02/14 12:10:34;;;;;;;1.30;1.20;;;8.20;99.90;;;;;;5034511;28;20049;-81
2023/02/14 12:13:09;;;;;;;1.52;1.42;;;8.20;99.90;;;;;;5050556;28;20398;-82
2023/02/14 12:15:55;;;;;;;0.57;0.57;;;8.30;99.90;;;;;;5032104;28;20486;-81
2023/02/14 12:18:36;;;;;;;1.67;1.58;;;8.40;99.90;;;;;;5033381;28;20049;-80
2023/02/14 12:21:26;;;;;;;0.70;0.70;;;8.50;99.90;;;;;;5046213;28;20036;-81
2023/02/14 12:24:10;;;;;;;1.38;0.65;;;8.60;99.90;;;;;;5031067;28;20819;-79
2023/02/14 12:26:51;;;;;;;0.93;0.93;;;8.60;99.90;;;;;;5038968;28;20672;-82
2023/02/14 12:29:32;;;;;;;0.50;0.50;;;8.70;99.90;;;;;;5036992;28;20040;-79
2023/02/14 12:32:01;;;;;;;0.65;0.65;;;8.80;99.90;;;;;;5042739;28;20388;-81
2023/02/14 12:34:29;;;;;;;1.70;1.48;;;8.90;99.90;;;;;;5044980;28;20041;-79
2023/02/14 12:37:20;;;;;;;1.73;1.63;;;8.90;99.90;;;;;;5044388;28;20102;-82
2023/02/14 12:40:17;;;;;;;0.60;0.60;;;9.10;99.90;;;;;;5036122;28;20103;-80
2023/02/14 12:43:07;;;;;;;0.60;0.60;;;9.20;99.90;;;;;;5050143;28;20382;-81
2023/02/14 12:46:02;;;;;;;0.50;0.50;;;9.20;99.90;;;;;;5052877;28;20847;-83
2023/02/14 12:48:34;;;;;;;0.80;0.80;;;9.30;99.90;;;;;;5045738;28;20059;-82
2023/02/14 12:51:08;;;;;;;1.10;1.02;;;9.40;99.90;;;;;;5030813;28;20045;-80
2023/02/14 12:53:45;;;;;;;1.00;0.75;;;9.50;99.90;;;;;;5049447;28;20127;-82
2023/02/14 12:56:47;;;;;;;2.75;1.33;;;9.60;99.90;;;;;;5029306;28;20037;-81
2023/02/14 12:59:42;;;;;;;1.45;1.38;;;9.80;99.90;;;;;;5048713;28;20102;-81
2023/02/14 13:02:34;;;;;;;0.40;0.40;;;9.90;99.90;;;;;;5050329;28;20126;-81
2023/02/14 13:05:21;;;;;;;0.57;0.57;;;10.00;99.90;;;;;;5043986;28;20049;-80
2023/02/14 13:08:18;;;;;;;0.98;0.98;;;10.00;99.90;;;;;;5045215;28;20045;-82
2023/02/14 13:11:19;;;;;;;0.50;0.50;;;10.10;99.90;;;;;;5056794;28;20530;-83
2023/02/14 13:13:53;;;;;;;0.40;0.40;;;10.20;99.90;;;;;;5042986;28;20051;-83
2023/02/14 13:16:31;;;;;;;0.60;0.60;;;10.30;99.90;;;;;;5044999;28;20044;-81
2023/02/14 13:19:05;;;;;;;0.90;0.55;;;10.50;99.90;;;;;;5043636;28;20045;-80
2023/02/14 13:21:36;;;;;;;0.50;0.50;;;10.60;99.90;;;;;;5046411;28;20114;-80
2023/02/14 13:24:23;;;;;;;0.30;0.30;;;10.70;99.90;;;;;;5025269;28;20057;-79
2023/02/14 13:26:54;;;;;;;0.45;0.45;;;10.80;99.90;;;;;;5045442;28;20045;-83
2023/02/14 13:29:26;;;;;;;1.48;0.65;;;10.90;99.90;;;;;;5049589;28;20087;-82
2023/02/14 13:31:57;;;;;;;2.22;1.45;;;11.00;99.90;;;;;;5040131;28;21084;-79
2023/02/14 13:34:37;;;;;;;1.63;1.52;;;11.10;99.90;;;;;;5029526;28;20471;-81
2023/02/14 13:37:08;;;;;;;2.70;1.58;;;11.20;99.90;;;;;;5027994;28;20048;-80
2023/02/14 13:40:01;;;;;;;0.80;0.80;;;11.30;99.90;;;;;;5030768;28;20080;-82
2023/02/14 13:42:51;;;;;;;0.43;0.43;;;11.40;99.90;;;;;;5030131;28;20103;-83
2023/02/14 13:45:28;;;;;;;1.77;1.60;;;11.50;99.90;;;;;;5047867;28;20135;-82
2023/02/14 13:48:13;;;;;;;0.93;0.80;;;11.60;99.90;;;;;;5026497;28;20079;-83